Time;durP1;ratioP1;P1;durP2;ratioP2;P2;SDS_P1;SDS_P2;PMS_P1;PMS_P2;Temp;Humidity;BMP_temperature;BMP_pressure;BME280_temperature;BME280_humidity;BME280_pressure;Samples;Min_cycle;Max_cycle;Signal;HPM_P1;HPM_P2
2023/11/04 00:01:42;;;;;;;;;;;;;;;10.00;79.70;98504.84;4193304;28;20015;-68
2023/11/04 00:03:44;;;;;;;;;;;;;;;10.01;79.67;98511.06;4195259;28;20375;-68
2023/11/04 00:05:48;;;;;;;;;;;;;;;10.00;79.57;98496.78;4194097;28;19967;-68
2023/11/04 00:07:51;;;;;;;;;;;;;;;9.99;79.47;98505.09;4193902;28;20473;-69
2023/11/04 00:09:53;;;;;;;;;;;;;;;9.96;79.53;98505.53;4194429;28;20040;-68
2023/11/04 00:11:58;;;;;;;;;;;;;;;9.96;79.74;98509.06;4192437;28;20020;-68
2023/11/04 00:14:01;;;;;;;;;;;;;;;9.93;79.51;98509.50;4194287;28;20467;-68
2023/11/04 00:16:06;;;;;;;;;;;;;;;9.92;79.49;98505.16;4195430;28;20365;-68
2023/11/04 00:18:08;;;;;;;;;;;;;;;9.90;79.64;98505.38;4193777;28;20011;-68
2023/11/04 00:20:10;;;;;;;;;;;;;;;9.87;79.43;98508.56;4194572;28;20019;-68
2023/11/04 00:22:14;;;;;;;;;;;;;;;9.86;79.37;98508.78;4193351;28;19931;-68
2023/11/04 00:24:17;;;;;;;;;;;;;;;9.87;79.41;98515.81;4194197;28;20028;-68
2023/11/04 00:26:18;;;;;;;;;;;;;;;9.85;79.41;98516.03;4195906;28;20011;-68
2023/11/04 00:28:27;;;;;;;;;;;;;;;9.85;79.34;98513.34;4196368;28;20023;-68
2023/11/04 00:30:31;;;;;;;;;;;;;;;9.83;79.49;98517.31;4196504;28;20784;-68
2023/11/04 00:32:34;;;;;;;;;;;;;;;9.83;79.41;98518.13;4196925;28;20019;-68
2023/11/04 00:34:36;;;;;;;;;;;;;;;9.81;79.11;98516.72;4212783;28;20003;-68
2023/11/04 00:36:38;;;;;;;;;;;;;;;9.79;79.29;98525.03;4197241;28;20381;-68
2023/11/04 00:38:40;;;;;;;;;;;;;;;9.80;78.98;98533.97;4196806;28;20578;-68
2023/11/04 00:40:42;;;;;;;;;;;;;;;9.79;79.06;98535.00;4197329;28;20023;-67
2023/11/04 00:42:46;;;;;;;;;;;;;;;9.77;79.12;98531.72;4196704;28;20512;-67
2023/11/04 00:44:51;;;;;;;;;;;;;;;9.77;78.92;98529.81;4197572;28;20172;-67
2023/11/04 00:46:54;;;;;;;;;;;;;;;9.77;78.70;98537.09;4195795;28;20020;-67
2023/11/04 00:48:57;;;;;;;;;;;;;;;9.76;78.67;98540.84;4197643;28;19956;-67
2023/11/04 00:51:00;;;;;;;;;;;;;;;9.73;78.82;98542.09;4196790;28;19932;-67
2023/11/04 00:53:02;;;;;;;;;;;;;;;9.70;78.77;98538.00;4197174;28;19960;-67
2023/11/04 00:55:03;;;;;;;;;;;;;;;9.70;78.78;98538.00;4197197;28;20442;-67
2023/11/04 00:57:05;;;;;;;;;;;;;;;9.68;78.34;98542.78;4197040;28;20494;-67
2023/11/04 00:59:07;;;;;;;;;;;;;;;9.67;78.38;98546.53;4196821;28;20019;-67
2023/11/04 01:01:09;;;;;;;;;;;;;;;9.64;78.68;98538.91;4196272;28;20001;-67
2023/11/04 01:03:13;;;;;;;;;;;;;;;9.63;78.43;98542.63;4197206;28;19975;-67
2023/11/04 01:05:14;;;;;;;;;;;;;;;9.60;78.46;98559.25;4196730;28;20426;-67
2023/11/04 01:07:17;;;;;;;;;;;;;;;9.60;78.45;98555.75;4196110;28;19925;-67
2023/11/04 01:09:19;;;;;;;;;;;;;;;9.57;78.38;98554.31;4196588;28;20023;-67
2023/11/04 01:11:21;;;;;;;;;;;;;;;9.54;78.36;98563.69;4183741;28;20462;-67
2023/11/04 01:13:23;;;;;;;;;;;;;;;9.55;78.32;98556.41;4195964;28;19963;-67
2023/11/04 01:15:25;;;;;;;;;;;;;;;9.54;78.71;98560.16;4197641;28;20030;-68
2023/11/04 01:17:27;;;;;;;;;;;;;;;9.52;78.74;98562.25;4198887;28;19959;-68
2023/11/04 01:19:30;;;;;;;;;;;;;;;9.51;78.70;98563.28;4197822;28;20561;-67
2023/11/04 01:21:32;;;;;;;;;;;;;;;9.50;78.36;98559.78;4197922;28;19966;-68
2023/11/04 01:23:36;;;;;;;;;;;;;;;9.48;78.59;98561.88;4197915;28;19970;-67
2023/11/04 01:25:38;;;;;;;;;;;;;;;9.46;78.31;98565.84;4196724;28;19957;-68
2023/11/04 01:27:41;;;;;;;;;;;;;;;9.44;78.44;98555.28;4198230;28;19970;-67
2023/11/04 01:29:43;;;;;;;;;;;;;;;9.44;78.36;98557.97;4196107;28;19956;-68
2023/11/04 01:31:46;;;;;;;;;;;;;;;9.42;78.34;98561.94;4197102;28;19928;-68
2023/11/04 01:33:48;;;;;;;;;;;;;;;9.43;78.27;98566.28;4212976;28;19999;-67
2023/11/04 01:35:51;;;;;;;;;;;;;;;9.41;77.81;98566.50;4197962;28;20051;-67
2023/11/04 01:37:53;;;;;;;;;;;;;;;9.41;77.83;98574.59;4196254;28;20366;-67
2023/11/04 01:39:55;;;;;;;;;;;;;;;9.42;77.54;98573.53;4196724;28;20017;-67
2023/11/04 01:42:04;;;;;;;;;;;;;;;9.41;77.19;98566.50;4197564;28;19978;-67
2023/11/04 01:44:06;;;;;;;;;;;;;;;9.39;77.20;98571.28;4205318;28;20342;-67
2023/11/04 01:46:13;;;;;;;;;;;;;;;9.42;77.30;98568.16;4196500;28;20445;-67
2023/11/04 01:48:15;;;;;;;;;;;;;;;9.39;77.19;98571.28;4195856;28;19963;-68
2023/11/04 01:50:16;;;;;;;;;;;;;;;9.36;76.84;98569.03;4195152;28;20015;-68
2023/11/04 01:52:20;;;;;;;;;;;;;;;9.35;77.07;98568.19;4197476;28;20476;-67
2023/11/04 01:54:22;;;;;;;;;;;;;;;9.36;76.71;98564.47;4194323;28;19967;-67
2023/11/04 01:56:25;;;;;;;;;;;;;;;9.34;76.69;98569.28;4194708;28;20055;-67
2023/11/04 01:58:27;;;;;;;;;;;;;;;9.34;76.63;98574.66;4194936;28;20442;-68
2023/11/04 02:00:29;;;;;;;;;;;;;;;9.35;76.27;98573.59;4203141;28;20011;-68
2023/11/04 02:02:30;;;;;;;;;;;;;;;9.34;76.35;98571.97;4187585;28;20019;-67
2023/11/04 02:04:32;;;;;;;;;;;;;;;9.31;75.90;98583.19;4196785;28;19963;-68
2023/11/04 02:06:34;;;;;;;;;;;;;;;9.29;76.10;98573.66;4197559;28;20012;-68
2023/11/04 02:08:37;;;;;;;;;;;;;;;9.26;76.02;98577.59;4196682;28;19983;-67
2023/11/04 02:10:39;;;;;;;;;;;;;;;9.24;76.36;98577.03;4193322;28;20058;-68
2023/11/04 02:12:41;;;;;;;;;;;;;;;9.24;76.19;98586.97;4193749;28;19943;-68
2023/11/04 02:14:49;;;;;;;;;;;;;;;9.25;76.37;98580.53;4194743;28;20015;-67
2023/11/04 02:16:52;;;;;;;;;;;;;;;9.20;76.07;98589.31;4195319;28;19984;-68
2023/11/04 02:18:55;;;;;;;;;;;;;;;9.14;75.99;98580.22;4193549;28;20026;-67
2023/11/04 02:20:59;;;;;;;;;;;;;;;9.13;76.17;98586.63;4196425;28;20413;-67
2023/11/04 02:23:01;;;;;;;;;;;;;;;9.12;75.98;98589.56;4195895;28;20342;-67
2023/11/04 02:25:03;;;;;;;;;;;;;;;9.08;76.27;98583.78;4195597;28;20027;-67
2023/11/04 02:27:05;;;;;;;;;;;;;;;9.05;76.39;98580.72;4195291;28;20015;-67
2023/11/04 02:29:07;;;;;;;;;;;;;;;9.04;76.74;98584.44;4196121;28;20032;-68
2023/11/04 02:31:09;;;;;;;;;;;;;;;8.99;76.73;98588.63;4193694;28;20027;-67
2023/11/04 02:33:11;;;;;;;;;;;;;;;9.00;76.87;98595.66;4194942;28;19935;-67
2023/11/04 02:35:15;;;;;;;;;;;;;;;8.97;76.71;98593.41;4194720;28;20500;-67
2023/11/04 02:37:18;;;;;;;;;;;;;;;8.95;76.70;98600.03;4194946;28;20474;-67
2023/11/04 02:39:19;;;;;;;;;;;;;;;8.94;76.85;98603.78;4195528;28;20032;-67
2023/11/04 02:41:21;;;;;;;;;;;;;;;8.94;76.73;98601.09;4195421;28;20027;-67
2023/11/04 02:43:23;;;;;;;;;;;;;;;8.92;76.74;98603.16;4195565;28;20016;-67
2023/11/04 02:45:24;;;;;;;;;;;;;;;8.88;77.08;98600.09;4195340;28;19974;-67
2023/11/04 02:47:26;;;;;;;;;;;;;;;8.86;77.21;98598.69;4194430;28;20023;-67
2023/11/04 02:49:28;;;;;;;;;;;;;;;8.83;76.90;98611.53;4195515;28;20027;-67
2023/11/04 02:51:32;;;;;;;;;;;;;;;8.83;77.05;98616.09;4194039;28;20007;-67
2023/11/04 02:53:35;;;;;;;;;;;;;;;8.79;76.94;98622.94;4195287;28;20385;-67
2023/11/04 02:55:37;;;;;;;;;;;;;;;8.77;77.17;98608.88;4195926;28;20363;-67
2023/11/04 02:57:39;;;;;;;;;;;;;;;8.74;77.27;98615.50;4194898;28;20020;-67
2023/11/04 02:59:41;;;;;;;;;;;;;;;8.73;76.99;98615.72;4195122;28;20020;-67
2023/11/04 03:01:43;;;;;;;;;;;;;;;8.69;77.20;98620.72;4193754;28;20030;-67
2023/11/04 03:03:45;;;;;;;;;;;;;;;8.68;77.08;98623.63;4185845;28;19959;-67
2023/11/04 03:05:47;;;;;;;;;;;;;;;8.65;76.91;98625.72;4194344;28;20419;-68
2023/11/04 03:07:50;;;;;;;;;;;;;;;8.62;76.97;98620.78;4194976;28;20023;-67
2023/11/04 03:09:52;;;;;;;;;;;;;;;8.60;76.88;98630.09;4195376;28;20023;-67
2023/11/04 03:11:56;;;;;;;;;;;;;;;8.57;76.94;98631.34;4195568;28;19970;-67
2023/11/04 03:13:58;;;;;;;;;;;;;;;8.55;76.93;98622.66;4197074;28;20390;-67
2023/11/04 03:15:59;;;;;;;;;;;;;;;8.52;77.15;98627.66;4192730;28;19967;-67
2023/11/04 03:18:02;;;;;;;;;;;;;;;8.52;77.24;98624.97;4196250;28;20008;-67
2023/11/04 03:20:05;;;;;;;;;;;;;;;8.49;77.08;98628.91;4188764;28;19956;-67
2023/11/04 03:22:07;;;;;;;;;;;;;;;8.47;77.22;98622.94;4195734;28;19956;-67
2023/11/04 03:24:09;;;;;;;;;;;;;;;8.46;77.14;98626.66;4195197;28;20015;-67
2023/11/04 03:26:13;;;;;;;;;;;;;;;8.43;77.31;98618.97;4197616;28;19959;-67
2023/11/04 03:28:15;;;;;;;;;;;;;;;8.40;77.33;98628.31;4196181;28;20022;-67
2023/11/04 03:30:16;;;;;;;;;;;;;;;8.40;77.26;98625.63;4195142;28;19963;-67
2023/11/04 03:32:19;;;;;;;;;;;;;;;8.38;77.44;98635.75;4194172;28;19928;-67
2023/11/04 03:34:20;;;;;;;;;;;;;;;8.36;77.38;98637.84;4196054;28;20417;-67
2023/11/04 03:36:22;;;;;;;;;;;;;;;8.34;77.36;98631.03;4197635;28;19925;-67
2023/11/04 03:38:25;;;;;;;;;;;;;;;8.30;77.29;98639.53;4188598;28;19968;-67
2023/11/04 03:40:27;;;;;;;;;;;;;;;8.30;77.66;98630.63;4196432;28;20398;-67
2023/11/04 03:42:31;;;;;;;;;;;;;;;8.27;77.36;98633.75;4197389;28;20023;-67
2023/11/04 03:44:33;;;;;;;;;;;;;;;8.25;77.70;98630.47;4196525;28;19967;-67
2023/11/04 03:46:35;;;;;;;;;;;;;;;8.22;77.99;98631.69;4195524;28;19966;-68
2023/11/04 03:48:38;;;;;;;;;;;;;;;8.21;77.65;98631.91;4195745;28;20020;-68
2023/11/04 03:50:40;;;;;;;;;;;;;;;8.19;77.96;98634.00;4194909;28;20031;-68
2023/11/04 03:52:42;;;;;;;;;;;;;;;8.15;77.77;98630.91;4192698;28;20010;-68
2023/11/04 03:54:44;;;;;;;;;;;;;;;8.15;78.05;98630.06;4194095;28;20831;-68
2023/11/04 03:56:46;;;;;;;;;;;;;;;8.12;78.07;98634.03;4194252;28;20007;-67
2023/11/04 03:58:49;;;;;;;;;;;;;;;8.11;78.09;98633.19;4194513;28;20011;-67
2023/11/04 04:00:51;;;;;;;;;;;;;;;8.10;78.19;98636.09;4190933;28;19971;-67
2023/11/04 04:02:52;;;;;;;;;;;;;;;8.07;78.24;98636.50;4195171;28;20011;-68
2023/11/04 04:04:54;;;;;;;;;;;;;;;8.07;78.25;98644.56;4200457;28;19925;-68
2023/11/04 04:06:56;;;;;;;;;;;;;;;8.07;78.24;98641.88;4199643;28;19962;-68
2023/11/04 04:08:58;;;;;;;;;;;;;;;8.04;78.20;98637.78;4199820;28;20339;-67
2023/11/04 04:11:02;;;;;;;;;;;;;;;8.03;78.27;98641.50;4199988;28;20019;-67
2023/11/04 04:13:04;;;;;;;;;;;;;;;8.01;78.32;98635.53;4198111;28;19967;-67
2023/11/04 04:15:07;;;;;;;;;;;;;;;8.01;78.40;98637.34;4199166;28;19935;-67
2023/11/04 04:17:09;;;;;;;;;;;;;;;8.00;78.41;98633.84;4198579;28;19955;-68
2023/11/04 04:19:11;;;;;;;;;;;;;;;7.97;78.19;98628.09;4200633;28;19963;-68
2023/11/04 04:21:13;;;;;;;;;;;;;;;7.97;78.39;98634.28;4200345;28;19955;-68
2023/11/04 04:23:16;;;;;;;;;;;;;;;7.94;78.63;98627.44;4199620;28;19967;-68
2023/11/04 04:25:18;;;;;;;;;;;;;;;7.93;78.64;98631.19;4200536;28;20399;-68
2023/11/04 04:27:20;;;;;;;;;;;;;;;7.92;78.75;98628.72;4199567;28;19967;-68
2023/11/04 04:29:23;;;;;;;;;;;;;;;7.90;78.54;98625.44;4199585;28;19963;-67
2023/11/04 04:31:28;;;;;;;;;;;;;;;7.88;78.89;98632.84;4197439;28;19972;-67
2023/11/04 04:33:30;;;;;;;;;;;;;;;7.87;78.69;98629.34;4198964;28;19968;-67
2023/11/04 04:35:32;;;;;;;;;;;;;;;7.87;78.92;98628.53;4199805;28;20275;-67
2023/11/04 04:37:34;;;;;;;;;;;;;;;7.85;78.52;98625.22;4199496;28;19982;-67
2023/11/04 04:39:37;;;;;;;;;;;;;;;7.84;78.69;98624.41;4196201;28;20030;-68
2023/11/04 04:41:39;;;;;;;;;;;;;;;7.82;79.06;98617.56;4197897;28;19974;-67
2023/11/04 04:43:41;;;;;;;;;;;;;;;7.81;78.84;98622.13;4197843;28;20020;-67
2023/11/04 04:45:43;;;;;;;;;;;;;;;7.79;79.05;98616.16;4197222;28;19960;-67
2023/11/04 04:47:47;;;;;;;;;;;;;;;7.77;79.22;98618.22;4197266;28;20426;-67
2023/11/04 04:49:48;;;;;;;;;;;;;;;7.76;79.00;98625.44;4197994;28;19961;-67
2023/11/04 04:51:51;;;;;;;;;;;;;;;7.76;79.13;98630.00;4193830;28;19972;-67
2023/11/04 04:53:53;;;;;;;;;;;;;;;7.73;79.27;98622.38;4196857;28;20018;-67
2023/11/04 04:55:53;;;;;;;;;;;;;;;7.73;79.36;98620.50;4197462;28;20375;-67
2023/11/04 04:57:56;;;;;;;;;;;;;;;7.72;79.44;98626.09;4197417;28;19937;-67
2023/11/04 04:59:58;;;;;;;;;;;;;;;7.71;79.16;98622.56;4197132;28;20019;-67
2023/11/04 05:02:02;;;;;;;;;;;;;;;7.71;79.29;98629.78;4197308;28;19998;-67
2023/11/04 05:04:08;;;;;;;;;;;;;;;7.70;79.48;98628.16;4197911;28;20459;-67
2023/11/04 05:06:13;;;;;;;;;;;;;;;7.71;79.44;98632.47;4197258;28;20573;-67
2023/11/04 05:08:15;;;;;;;;;;;;;;;7.72;79.25;98631.47;4198684;28;19966;-68
2023/11/04 05:10:17;;;;;;;;;;;;;;;7.70;79.34;98628.16;4197934;28;20020;-67
2023/11/04 05:12:18;;;;;;;;;;;;;;;7.69;79.35;98629.19;4195388;28;19960;-67
2023/11/04 05:14:20;;;;;;;;;;;;;;;7.66;79.40;98627.72;4198005;28;20011;-67
2023/11/04 05:16:22;;;;;;;;;;;;;;;7.65;79.40;98630.63;4195796;28;19925;-67
2023/11/04 05:18:24;;;;;;;;;;;;;;;7.65;79.48;98625.25;4196265;28;20023;-68
2023/11/04 05:20:29;;;;;;;;;;;;;;;7.66;79.74;98632.28;4196729;28;20359;-67
2023/11/04 05:22:30;;;;;;;;;;;;;;;7.65;79.83;98636.00;4197735;28;20036;-67
2023/11/04 05:24:32;;;;;;;;;;;;;;;7.63;79.90;98640.78;4194525;28;20016;-68
2023/11/04 05:26:34;;;;;;;;;;;;;;;7.64;79.50;98640.56;4195909;28;20019;-67
2023/11/04 05:28:36;;;;;;;;;;;;;;;7.63;79.96;98630.84;4197994;28;20501;-68
2023/11/04 05:30:38;;;;;;;;;;;;;;;7.62;79.73;98625.69;4196736;28;19964;-67
2023/11/04 05:32:40;;;;;;;;;;;;;;;7.62;79.63;98631.91;4197370;28;19964;-67
2023/11/04 05:34:44;;;;;;;;;;;;;;;7.62;80.09;98623.00;4198339;28;19964;-68
2023/11/04 05:36:48;;;;;;;;;;;;;;;7.61;79.95;98630.22;4198574;28;19925;-68
2023/11/04 05:38:50;;;;;;;;;;;;;;;7.60;79.51;98628.56;4197279;28;20242;-67
2023/11/04 05:40:54;;;;;;;;;;;;;;;7.59;80.09;98629.63;4196910;28;19932;-68
2023/11/04 05:42:56;;;;;;;;;;;;;;;7.58;79.93;98644.91;4198714;28;19963;-68
2023/11/04 05:44:58;;;;;;;;;;;;;;;7.60;79.77;98633.94;4198011;28;19963;-69
2023/11/04 05:47:00;;;;;;;;;;;;;;;7.61;79.86;98634.78;4197697;28;20560;-69
2023/11/04 05:49:02;;;;;;;;;;;;;;;7.58;79.71;98631.47;4195047;28;20007;-68
2023/11/04 05:51:03;;;;;;;;;;;;;;;7.60;80.04;98631.25;4197250;28;19971;-68
2023/11/04 05:53:07;;;;;;;;;;;;;;;7.59;79.97;98637.69;4196636;28;20011;-68
2023/11/04 05:55:11;;;;;;;;;;;;;;;7.61;79.99;98626.72;4196505;28;20011;-68
2023/11/04 05:57:12;;;;;;;;;;;;;;;7.60;79.61;98633.94;4196190;28;19928;-68
2023/11/04 05:59:14;;;;;;;;;;;;;;;7.61;79.98;98632.09;4195274;28;19931;-68
2023/11/04 06:01:16;;;;;;;;;;;;;;;7.61;79.68;98626.72;4193852;28;19928;-68
2023/11/04 06:03:18;;;;;;;;;;;;;;;7.63;79.70;98636.22;4195358;28;19925;-68
2023/11/04 06:05:20;;;;;;;;;;;;;;;7.64;79.68;98637.88;4196053;28;20008;-68
2023/11/04 06:07:22;;;;;;;;;;;;;;;7.62;79.80;98639.97;4196402;28;20497;-68
2023/11/04 06:09:27;;;;;;;;;;;;;;;7.63;79.80;98640.78;4196644;28;20023;-68
2023/11/04 06:11:30;;;;;;;;;;;;;;;7.62;79.46;98633.72;4187860;28;19924;-68
2023/11/04 06:13:34;;;;;;;;;;;;;;;7.61;79.47;98634.78;4196127;28;19925;-67
2023/11/04 06:15:36;;;;;;;;;;;;;;;7.62;79.83;98647.16;4196593;28;19996;-67
2023/11/04 06:17:38;;;;;;;;;;;;;;;7.62;79.76;98634.59;4196288;28;20346;-68
2023/11/04 06:19:40;;;;;;;;;;;;;;;7.60;79.60;98652.75;4194299;28;20031;-67
2023/11/04 06:21:42;;;;;;;;;;;;;;;7.60;79.67;98643.88;4195612;28;20015;-67
2023/11/04 06:23:44;;;;;;;;;;;;;;;7.58;79.63;98639.53;4196442;28;19966;-68
2023/11/04 06:25:48;;;;;;;;;;;;;;;7.60;79.77;98635.81;4196640;28;20078;-68
2023/11/04 06:27:50;;;;;;;;;;;;;;;7.60;79.69;98642.00;4196368;28;20011;-68
2023/11/04 06:29:52;;;;;;;;;;;;;;;7.61;79.76;98640.97;4194588;28;20030;-67
2023/11/04 06:31:55;;;;;;;;;;;;;;;7.58;79.84;98642.22;4193811;28;19960;-68
2023/11/04 06:33:57;;;;;;;;;;;;;;;7.58;79.93;98644.09;4195597;28;20006;-67
2023/11/04 06:35:59;;;;;;;;;;;;;;;7.60;79.78;98638.50;4196791;28;19932;-68
2023/11/04 06:38:02;;;;;;;;;;;;;;;7.61;79.64;98642.84;4195117;28;20334;-69
2023/11/04 06:40:06;;;;;;;;;;;;;;;7.61;79.61;98634.78;4195236;28;20027;-68
2023/11/04 06:42:10;;;;;;;;;;;;;;;7.62;79.70;98647.16;4196310;28;20031;-67
2023/11/04 06:44:12;;;;;;;;;;;;;;;7.61;79.81;98648.22;4196780;28;19986;-68
2023/11/04 06:46:14;;;;;;;;;;;;;;;7.61;79.76;98642.84;4196394;28;19970;-68
2023/11/04 06:48:16;;;;;;;;;;;;;;;7.62;79.76;98634.59;4194954;28;20031;-68
2023/11/04 06:50:18;;;;;;;;;;;;;;;7.62;79.93;98645.31;4193567;28;20015;-69
2023/11/04 06:52:21;;;;;;;;;;;;;;;7.63;79.71;98646.97;4193090;28;20570;-64
2023/11/04 06:54:23;;;;;;;;;;;;;;;7.62;80.24;98652.53;4191469;28;20040;-65
2023/11/04 06:56:25;;;;;;;;;;;;;;;7.63;80.00;98646.16;4195085;28;20019;-66
2023/11/04 06:58:27;;;;;;;;;;;;;;;7.62;80.22;98642.66;4195091;28;19928;-65
2023/11/04 07:00:29;;;;;;;;;;;;;;;7.61;80.24;98646.34;4193428;28;20012;-69
2023/11/04 07:02:32;;;;;;;;;;;;;;;7.62;80.36;98649.84;4192822;28;20481;-65
2023/11/04 07:04:33;;;;;;;;;;;;;;;7.63;80.65;98646.16;4192413;28;20303;-65
2023/11/04 07:06:35;;;;;;;;;;;;;;;7.62;80.50;98641.78;4193322;28;20417;-68
2023/11/04 07:08:37;;;;;;;;;;;;;;;7.63;80.70;98648.84;4193655;28;20007;-67
2023/11/04 07:10:39;;;;;;;;;;;;;;;7.63;80.48;98635.41;4195015;28;19988;-66
2023/11/04 07:12:41;;;;;;;;;;;;;;;7.64;80.70;98639.75;4192980;28;20047;-67
2023/11/04 07:14:45;;;;;;;;;;;;;;;7.64;80.64;98639.75;4193447;28;20028;-67
2023/11/04 07:16:46;;;;;;;;;;;;;;;7.65;80.96;98628.78;4194104;28;20027;-69
2023/11/04 07:18:48;;;;;;;;;;;;;;;7.66;80.61;98640.34;4193856;28;19931;-67
2023/11/04 07:20:49;;;;;;;;;;;;;;;7.68;80.74;98643.66;4193277;28;20055;-66
2023/11/04 07:22:51;;;;;;;;;;;;;;;7.70;80.65;98639.72;4193209;28;20035;-68
2023/11/04 07:24:52;;;;;;;;;;;;;;;7.71;80.44;98636.00;4192733;28;20583;-66
2023/11/04 07:26:57;;;;;;;;;;;;;;;7.72;80.76;98628.78;4194118;28;19971;-68
2023/11/04 07:28:59;;;;;;;;;;;;;;;7.73;80.74;98633.13;4193595;28;19925;-69
2023/11/04 07:31:02;;;;;;;;;;;;;;;7.75;80.59;98636.41;4192456;28;20007;-69
2023/11/04 07:33:04;;;;;;;;;;;;;;;7.78;80.53;98638.69;4195216;28;20863;-68
2023/11/04 07:35:07;;;;;;;;;;;;;;;7.79;80.46;98626.06;4192292;28;20023;-71
2023/11/04 07:37:09;;;;;;;;;;;;;;;7.80;80.46;98633.09;4191654;28;20013;-70
2023/11/04 07:39:14;;;;;;;;;;;;;;;7.79;80.52;98631.44;4193666;28;19936;-70
2023/11/04 07:41:16;;;;;;;;;;;;;;;7.82;80.63;98626.47;4193211;28;20019;-70
2023/11/04 07:43:18;;;;;;;;;;;;;;;7.82;80.23;98626.47;4193120;28;20015;-69
2023/11/04 07:45:20;;;;;;;;;;;;;;;7.83;80.60;98622.75;4191349;28;20023;-69
2023/11/04 07:47:23;;;;;;;;;;;;;;;7.87;80.50;98625.84;4191679;28;20111;-68
2023/11/04 07:49:25;;;;;;;;;;;;;;;7.89;80.35;98623.78;4193058;28;20056;-68
2023/11/04 07:51:27;;;;;;;;;;;;;;;7.90;80.62;98628.94;4191878;28;19924;-70
2023/11/04 07:53:28;;;;;;;;;;;;;;;7.94;80.35;98616.69;4192219;28;20023;-68
2023/11/04 07:55:31;;;;;;;;;;;;;;;7.95;80.39;98617.53;4192820;28;20334;-68
2023/11/04 07:57:34;;;;;;;;;;;;;;;8.00;80.45;98614.22;4191401;28;20015;-69
2023/11/04 07:59:36;;;;;;;;;;;;;;;8.04;80.52;98612.75;4192002;28;20362;-67
2023/11/04 08:01:38;;;;;;;;;;;;;;;8.07;80.42;98606.94;4192014;28;20007;-67
2023/11/04 08:03:41;;;;;;;;;;;;;;;8.10;80.67;98610.06;4191893;28;19978;-68
2023/11/04 08:05:43;;;;;;;;;;;;;;;8.14;80.34;98615.81;4191265;28;20016;-69
2023/11/04 08:07:45;;;;;;;;;;;;;;;8.19;80.42;98605.22;4188696;28;20388;-68
2023/11/04 08:09:47;;;;;;;;;;;;;;;8.24;80.48;98602.72;4188527;28;20043;-69
2023/11/04 08:11:49;;;;;;;;;;;;;;;8.29;80.43;98602.94;4191161;28;20011;-68
2023/11/04 08:13:51;;;;;;;;;;;;;;;8.34;80.16;98599.59;4193130;28;20019;-70
2023/11/04 08:15:54;;;;;;;;;;;;;;;8.40;80.06;98597.88;4191318;28;20011;-68
2023/11/04 08:17:55;;;;;;;;;;;;;;;8.47;79.93;98587.97;4193563;28;20701;-67
2023/11/04 08:19:58;;;;;;;;;;;;;;;8.54;80.12;98594.13;4189613;28;19982;-67
2023/11/04 08:22:00;;;;;;;;;;;;;;;8.61;79.91;98602.16;4190936;28;20434;-68
2023/11/04 08:24:03;;;;;;;;;;;;;;;8.69;79.97;98587.63;4189842;28;20015;-67
2023/11/04 08:26:05;;;;;;;;;;;;;;;8.76;79.89;98600.00;4184336;28;20036;-66
2023/11/04 08:28:10;;;;;;;;;;;;;;;8.84;79.49;98596.22;4191141;28;20044;-68
2023/11/04 08:30:13;;;;;;;;;;;;;;;8.94;79.42;98588.47;4189170;28;20378;-67
2023/11/04 08:32:15;;;;;;;;;;;;;;;9.04;79.26;98592.53;4191137;28;20019;-67
2023/11/04 08:34:18;;;;;;;;;;;;;;;9.14;78.97;98587.50;4191434;28;20023;-68
2023/11/04 08:36:22;;;;;;;;;;;;;;;9.22;78.31;98587.19;4191645;28;20051;-68
2023/11/04 08:38:24;;;;;;;;;;;;;;;9.31;78.39;98593.97;4191954;28;20022;-67
2023/11/04 08:40:26;;;;;;;;;;;;;;;9.41;77.92;98592.63;4190180;28;19925;-67
2023/11/04 08:42:28;;;;;;;;;;;;;;;9.50;77.25;98580.53;4184717;28;19932;-68
2023/11/04 08:44:29;;;;;;;;;;;;;;;9.57;77.34;98594.72;4192127;28;20379;-69
2023/11/04 08:46:31;;;;;;;;;;;;;;;9.66;76.72;98590.69;4193031;28;19929;-69
2023/11/04 08:48:33;;;;;;;;;;;;;;;9.73;76.60;98588.78;4188592;28;20027;-68
2023/11/04 08:50:35;;;;;;;;;;;;;;;9.81;76.09;98592.19;4193985;28;20423;-69
2023/11/04 08:52:40;;;;;;;;;;;;;;;9.86;75.68;98585.09;4193757;28;20450;-69
2023/11/04 08:54:42;;;;;;;;;;;;;;;9.93;75.30;98590.41;4193502;28;20421;-69
2023/11/04 08:56:48;;;;;;;;;;;;;;;9.98;74.95;98585.16;4193690;28;20035;-68
2023/11/04 08:58:49;;;;;;;;;;;;;;;10.03;74.65;98587.16;4193855;28;20023;-68
2023/11/04 09:00:52;;;;;;;;;;;;;;;10.07;74.45;98591.06;4193406;28;19947;-68
2023/11/04 09:02:54;;;;;;;;;;;;;;;10.09;74.14;98580.88;4194068;28;20019;-68
2023/11/04 09:04:55;;;;;;;;;;;;;;;10.13;73.80;98583.97;4194515;28;19959;-68
2023/11/04 09:06:59;;;;;;;;;;;;;;;10.15;73.41;98576.44;4194254;28;19950;-70
2023/11/04 09:09:07;;;;;;;;;;;;;;;10.16;73.27;98573.53;4192918;28;19932;-69
2023/11/04 09:11:12;;;;;;;;;;;;;;;10.18;73.46;98584.09;4193022;28;20014;-70
2023/11/04 09:13:14;;;;;;;;;;;;;;;10.20;73.24;98572.03;4193782;28;20023;-70
2023/11/04 09:15:16;;;;;;;;;;;;;;;10.22;72.98;98575.31;4192548;28;20426;-70
2023/11/04 09:17:18;;;;;;;;;;;;;;;10.24;72.99;98580.47;4192156;28;20028;-69
2023/11/04 09:19:20;;;;;;;;;;;;;;;10.26;72.64;98575.66;4194333;28;20473;-68
2023/11/04 09:21:21;;;;;;;;;;;;;;;10.27;72.84;98580.84;4194570;28;19955;-69
2023/11/04 09:23:24;;;;;;;;;;;;;;;10.28;72.52;98579.81;4195251;28;20024;-69
2023/11/04 09:25:27;;;;;;;;;;;;;;;10.32;72.43;98579.34;4192269;28;20019;-69
2023/11/04 09:27:31;;;;;;;;;;;;;;;10.33;72.45;98584.53;4193344;28;20047;-70
2023/11/04 09:29:34;;;;;;;;;;;;;;;10.34;72.41;98579.97;4193570;28;20059;-69
2023/11/04 09:31:37;;;;;;;;;;;;;;;10.33;72.05;98581.00;4187804;28;20031;-69
2023/11/04 09:33:39;;;;;;;;;;;;;;;10.36;72.10;98588.63;4184866;28;20038;-68
2023/11/04 09:35:41;;;;;;;;;;;;;;;10.38;71.99;98576.56;4187192;28;20031;-70
2023/11/04 09:37:44;;;;;;;;;;;;;;;10.39;71.76;98580.09;4186274;28;20023;-70
2023/11/04 09:39:46;;;;;;;;;;;;;;;10.38;71.72;98579.28;4185342;28;20023;-69
2023/11/04 09:41:51;;;;;;;;;;;;;;;10.41;71.37;98573.44;4187402;28;19928;-70
2023/11/04 09:43:53;;;;;;;;;;;;;;;10.43;71.08;98574.00;4190890;28;20023;-69
2023/11/04 09:45:55;;;;;;;;;;;;;;;10.44;71.07;98574.84;4191822;28;20180;-69
2023/11/04 09:47:57;;;;;;;;;;;;;;;10.48;70.82;98567.13;4191718;28;20031;-70
2023/11/04 09:49:59;;;;;;;;;;;;;;;10.48;70.99;98573.31;4192435;28;20059;-70
2023/11/04 09:52:01;;;;;;;;;;;;;;;10.49;70.71;98569.59;4192380;28;20076;-70
2023/11/04 09:54:07;;;;;;;;;;;;;;;10.51;70.74;98555.84;4193840;28;20028;-68
2023/11/04 09:56:09;;;;;;;;;;;;;;;10.53;70.60;98556.44;4192752;28;20008;-69
2023/11/04 09:58:13;;;;;;;;;;;;;;;10.55;70.17;98555.16;4192020;28;20015;-69
2023/11/04 10:00:14;;;;;;;;;;;;;;;10.57;70.29;98568.44;4192389;28;20031;-69
2023/11/04 10:02:16;;;;;;;;;;;;;;;10.58;70.18;98553.88;4191754;28;20011;-69
2023/11/04 10:04:18;;;;;;;;;;;;;;;10.59;70.33;98559.03;4193644;28;19929;-69
2023/11/04 10:06:22;;;;;;;;;;;;;;;10.61;70.21;98554.25;4194546;28;20322;-69
2023/11/04 10:08:24;;;;;;;;;;;;;;;10.64;70.09;98552.94;4192860;28;20031;-70
2023/11/04 10:10:26;;;;;;;;;;;;;;;10.65;70.27;98551.91;4192377;28;20015;-70
2023/11/04 10:12:29;;;;;;;;;;;;;;;10.71;69.66;98542.06;4191757;28;20032;-71
2023/11/04 10:14:32;;;;;;;;;;;;;;;10.72;69.22;98563.44;4193081;28;20015;-70
2023/11/04 10:16:33;;;;;;;;;;;;;;;10.77;69.06;98533.03;4192453;28;20023;-70
2023/11/04 10:18:37;;;;;;;;;;;;;;;10.79;69.22;98533.63;4193069;28;19925;-69
2023/11/04 10:20:39;;;;;;;;;;;;;;;10.83;69.16;98537.50;4192916;28;20015;-70
2023/11/04 10:22:41;;;;;;;;;;;;;;;10.88;68.85;98528.69;4192160;28;20028;-70
2023/11/04 10:24:43;;;;;;;;;;;;;;;10.92;68.80;98559.59;4192165;28;20023;-70
2023/11/04 10:26:49;;;;;;;;;;;;;;;10.94;68.60;98525.06;4193585;28;20023;-70
2023/11/04 10:28:50;;;;;;;;;;;;;;;11.01;68.15;98541.97;4191992;28;20019;-71
2023/11/04 10:30:54;;;;;;;;;;;;;;;11.03;68.33;98526.34;4192408;28;19928;-70
2023/11/04 10:32:56;;;;;;;;;;;;;;;11.08;68.03;98528.34;4191476;28;20011;-69
2023/11/04 10:34:57;;;;;;;;;;;;;;;11.11;68.16;98536.00;4193522;28;20027;-71
2023/11/04 10:37:00;;;;;;;;;;;;;;;11.15;67.41;98529.88;4192046;28;19964;-70
2023/11/04 10:39:03;;;;;;;;;;;;;;;11.22;67.04;98515.44;4192482;28;20012;-71
2023/11/04 10:41:06;;;;;;;;;;;;;;;11.26;66.60;98517.44;4191270;28;20393;-68
2023/11/04 10:43:08;;;;;;;;;;;;;;;11.30;66.41;98517.78;4191530;28;20458;-70
2023/11/04 10:45:11;;;;;;;;;;;;;;;11.34;66.37;98518.97;4191632;28;20050;-70